Time;durP1;ratioP1;P1;durP2;ratioP2;P2;SDS_P1;SDS_P2;PMS_P1;PMS_P2;Temp;Humidity;BMP_temperature;BMP_pressure;BME280_temperature;BME280_humidity;BME280_pressure;Samples;Min_cycle;Max_cycle;Signal;HPM_P1;HPM_P2
2021/08/28 13:35:26;;;;;;;2.70;1.40;;;;;;;19.18;62.78;100153.91;5105167;27;20672;-63
2021/08/28 13:37:52;;;;;;;4.22;1.95;;;;;;;19.17;62.20;100147.38;5092936;28;20040;-63
2021/08/28 13:40:18;;;;;;;1.85;1.38;;;;;;;19.17;63.10;100150.22;5092790;28;20369;-66
2021/08/28 13:42:46;;;;;;;3.03;1.80;;;;;;;19.18;63.39;100149.00;5092437;28;20386;-65
2021/08/28 13:45:12;;;;;;;4.53;1.73;;;;;;;19.17;61.90;100157.97;5081456;28;20013;-63
2021/08/28 13:47:37;;;;;;;2.92;1.83;;;;;;;19.15;62.11;100145.00;5091586;28;20031;-61
2021/08/28 13:50:03;;;;;;;2.30;2.05;;;;;;;19.14;61.98;100143.41;5092408;28;20199;-61
2021/08/28 13:52:29;;;;;;;2.97;2.20;;;;;;;19.15;62.07;100150.69;5092856;28;20020;-61
2021/08/28 13:54:54;;;;;;;3.03;1.77;;;;;;;19.14;61.88;100142.63;5092481;28;20024;-63
2021/08/28 13:57:19;;;;;;;2.83;1.90;;;;;;;19.14;62.09;100134.88;5092296;28;20446;-62
2021/08/28 13:59:45;;;;;;;10.13;2.00;;;;;;;19.15;62.10;100139.31;5092527;28;20728;-64
2021/08/28 14:02:10;;;;;;;3.25;2.20;;;;;;;19.16;62.84;100128.69;5091113;28;20120;-62
2021/08/28 14:04:35;;;;;;;10.70;3.33;;;;;;;19.17;62.80;100138.81;5092575;28;20016;-63
2021/08/28 14:07:01;;;;;;;3.03;2.40;;;;;;;19.17;62.25;100132.34;5080738;28;20060;-63
2021/08/28 14:09:27;;;;;;;3.30;2.35;;;;;;;19.18;61.88;100122.56;5094461;28;20027;-63
2021/08/28 14:11:52;;;;;;;4.97;2.40;;;;;;;19.19;62.13;100124.94;5092323;28;20033;-62
2021/08/28 14:14:17;;;;;;;5.93;2.50;;;;;;;19.19;62.00;100124.94;5090552;28;20020;-61
2021/08/28 14:16:43;;;;;;;3.03;2.25;;;;;;;19.19;61.42;100124.94;5088727;28;20032;-63
2021/08/28 14:19:08;;;;;;;4.93;2.58;;;;;;;19.20;62.35;100126.53;5091913;28;20099;-62
2021/08/28 14:21:33;;;;;;;3.78;2.30;;;;;;;19.18;62.35;100131.91;5092023;28;20036;-63
2021/08/28 14:23:59;;;;;;;2.78;2.33;;;;;;;19.18;62.24;100126.19;5091957;28;20020;-64
2021/08/28 14:26:24;;;;;;;3.35;2.47;;;;;;;19.18;61.90;100129.06;5091895;28;20380;-61
2021/08/28 14:28:49;;;;;;;4.15;2.38;;;;;;;19.19;61.66;100129.84;5092013;28;20026;-63
2021/08/28 14:31:15;;;;;;;3.78;2.35;;;;;;;19.19;62.14;100130.63;5091395;28;20107;-62
2021/08/28 14:33:40;;;;;;;3.63;2.30;;;;;;;19.17;62.04;100129.50;5091673;28;20051;-63
2021/08/28 14:36:05;;;;;;;2.70;2.10;;;;;;;19.18;62.90;100131.91;5083945;28;20024;-62
2021/08/28 14:38:31;;;;;;;2.33;2.10;;;;;;;19.17;62.86;100130.28;5091859;28;20370;-62
2021/08/28 14:40:56;;;;;;;3.22;2.40;;;;;;;19.17;63.31;100138.81;5091844;28;20403;-65
2021/08/28 14:43:22;;;;;;;3.75;2.35;;;;;;;19.16;63.52;100142.94;5091274;28;20029;-61
2021/08/28 14:45:47;;;;;;;6.15;3.67;;;;;;;19.16;63.38;100148.63;5077860;28;20473;-62
2021/08/28 14:48:12;;;;;;;4.15;2.60;;;;;;;19.15;64.06;100150.69;5075247;28;20024;-63
2021/08/28 14:50:38;;;;;;;6.03;3.25;;;;;;;19.16;64.37;100157.19;5078202;28;20040;-64
2021/08/28 14:53:05;;;;;;;4.82;3.28;;;;;;;19.15;64.65;100149.91;5077864;28;20028;-64
2021/08/28 14:55:30;;;;;;;3.80;3.22;;;;;;;19.11;65.46;100158.59;5075839;28;20324;-61
2021/08/28 14:57:56;;;;;;;4.05;2.65;;;;;;;19.09;65.40;100166.81;5066609;28;20021;-61
2021/08/28 15:00:21;;;;;;;3.05;2.67;;;;;;;19.06;65.22;100155.56;5072124;28;20036;-61
2021/08/28 15:02:46;;;;;;;4.18;2.75;;;;;;;19.02;65.31;100152.84;5071184;28;20310;-61
2021/08/28 15:05:12;;;;;;;4.85;2.75;;;;;;;18.98;65.85;100157.13;5069338;28;20068;-61
2021/08/28 15:07:37;;;;;;;4.35;2.47;;;;;;;18.96;66.04;100153.94;5066495;28;20032;-61
2021/08/28 15:10:03;;;;;;;4.53;2.70;;;;;;;18.91;66.35;100154.53;5066619;28;20020;-61
2021/08/28 15:12:31;;;;;;;4.78;3.10;;;;;;;18.87;66.26;100142.47;5077549;28;20061;-63
2021/08/28 15:14:56;;;;;;;3.58;2.63;;;;;;;18.84;66.51;100135.66;5067374;28;20027;-62
2021/08/28 15:17:21;;;;;;;2.88;2.45;;;;;;;18.80;66.51;100135.81;5077065;28;20353;-63
2021/08/28 15:19:47;;;;;;;2.55;2.17;;;;;;;18.79;66.91;100137.06;5077576;28;20043;-62
2021/08/28 15:22:13;;;;;;;2.42;2.22;;;;;;;18.78;66.83;100140.38;5077615;28;20032;-64
2021/08/28 15:24:38;;;;;;;2.20;2.00;;;;;;;18.77;66.74;100136.75;5077878;28;20012;-62
2021/08/28 15:27:04;;;;;;;2.70;2.15;;;;;;;18.77;66.67;100135.94;5077136;28;20035;-61
2021/08/28 15:29:29;;;;;;;4.55;2.42;;;;;;;18.76;66.90;100137.19;5073151;28;20024;-60
2021/08/28 15:31:56;;;;;;;4.53;2.38;;;;;;;18.73;67.48;100140.97;5063976;28;20024;-60
2021/08/28 15:34:21;;;;;;;4.78;2.22;;;;;;;18.70;67.54;100142.72;5062103;28;20052;-61
2021/08/28 15:36:47;;;;;;;4.63;2.10;;;;;;;18.68;68.57;100155.81;5064441;28;20025;-60
2021/08/28 15:39:14;;;;;;;3.75;2.47;;;;;;;18.65;68.91;100146.16;5068391;28;20322;-60
2021/08/28 15:41:39;;;;;;;4.95;2.42;;;;;;;18.62;69.25;100146.25;5070334;28;20027;-61
2021/08/28 15:44:05;;;;;;;6.57;2.90;;;;;;;18.58;71.00;100143.53;5073651;28;20013;-61
2021/08/28 15:46:31;;;;;;;5.95;2.53;;;;;;;18.56;71.93;100153.78;5072315;28;20032;-62
2021/08/28 15:48:56;;;;;;;3.92;3.53;;;;;;;18.54;71.88;100140.81;5066700;28;20016;-62
2021/08/28 15:51:21;;;;;;;7.45;4.47;;;;;;;18.56;72.19;100137.50;5060585;28;20036;-61
2021/08/28 15:53:47;;;;;;;7.38;5.28;;;;;;;18.56;73.21;100140.34;5066222;28;20028;-61
2021/08/28 15:56:12;;;;;;;7.20;5.78;;;;;;;18.57;73.67;100139.09;5064466;28;20021;-61
2021/08/28 15:58:38;;;;;;;7.05;5.55;;;;;;;18.57;74.21;100144.78;5073892;28;20027;-61
2021/08/28 16:01:03;;;;;;;9.43;5.00;;;;;;;18.54;74.48;100140.03;5063548;28;20029;-61
2021/08/28 16:03:30;;;;;;;6.95;4.53;;;;;;;18.51;74.64;100146.66;5061446;28;20104;-61
2021/08/28 16:05:57;;;;;;;6.22;4.45;;;;;;;18.45;74.68;100142.81;5068514;28;20426;-61
2021/08/28 16:08:22;;;;;;;12.05;5.15;;;;;;;18.43;75.21;100153.88;5071437;28;20074;-61
2021/08/28 16:10:48;;;;;;;11.05;6.38;;;;;;;18.39;76.01;100150.38;5073625;28;20319;-61
2021/08/28 16:13:15;;;;;;;9.93;6.93;;;;;;;18.34;75.82;100137.50;5067878;28;20063;-61
2021/08/28 16:15:41;;;;;;;8.70;6.18;;;;;;;18.30;75.96;100141.75;5063307;28;20055;-61
2021/08/28 16:18:06;;;;;;;7.88;4.75;;;;;;;18.26;75.55;100132.53;5064925;28;20048;-61
2021/08/28 16:20:32;;;;;;;9.02;4.18;;;;;;;18.16;75.48;100120.31;5071357;28;20039;-61
2021/08/28 16:22:58;;;;;;;8.48;4.63;;;;;;;18.13;76.12;100129.75;5063913;28;20020;-61
2021/08/28 16:25:23;;;;;;;6.30;4.45;;;;;;;18.07;76.63;100115.31;5070724;28;20121;-61
2021/08/28 16:27:48;;;;;;;9.00;4.78;;;;;;;17.99;76.77;100122.53;5075851;28;20036;-61
2021/08/28 16:30:14;;;;;;;6.60;3.95;;;;;;;17.93;76.91;100118.69;5073461;28;20067;-61
2021/08/28 16:32:39;;;;;;;7.70;4.13;;;;;;;17.90;76.35;100113.91;5065553;28;20328;-61
2021/08/28 16:35:06;;;;;;;12.27;5.63;;;;;;;17.89;76.71;100112.31;5062518;28;20037;-61
2021/08/28 16:37:31;;;;;;;11.52;6.55;;;;;;;17.94;76.21;100108.09;5059313;28;20021;-61
2021/08/28 16:39:56;;;;;;;11.65;5.95;;;;;;;17.92;75.83;100112.19;5063758;28;20020;-61
2021/08/28 16:42:22;;;;;;;13.50;6.68;;;;;;;17.89;75.59;100120.84;5067495;28;20028;-61
2021/08/28 16:44:47;;;;;;;7.57;4.93;;;;;;;17.87;76.00;100123.38;5061188;28;20032;-61
2021/08/28 16:47:13;;;;;;;6.60;4.07;;;;;;;17.87;76.37;100126.22;5061357;28;20025;-61
2021/08/28 16:49:42;;;;;;;18.75;10.48;;;;;;;17.87;76.47;100126.22;5070795;28;20074;-62
2021/08/28 16:52:09;;;;;;;43.40;21.25;;;;;;;17.86;77.26;100130.31;5074989;28;20020;-61
2021/08/28 16:54:34;;;;;;;31.58;18.05;;;;;;;17.84;77.73;100127.13;5062923;28;20287;-62
2021/08/28 16:57:00;;;;;;;20.25;10.63;;;;;;;17.80;78.34;100138.59;5064072;28;20203;-61
2021/08/28 16:59:25;;;;;;;13.20;6.10;;;;;;;17.77;78.16;100139.53;5061687;28;20028;-62
2021/08/28 17:01:51;;;;;;;6.22;4.68;;;;;;;17.75;78.32;100130.66;5059026;28;20031;-62
2021/08/28 17:04:16;;;;;;;4.43;3.03;;;;;;;17.73;78.57;100135.22;5071190;28;20095;-62
2021/08/28 17:06:42;;;;;;;7.15;3.75;;;;;;;17.73;78.05;100135.22;5058247;28;20016;-61
2021/08/28 17:09:07;;;;;;;4.20;3.58;;;;;;;17.72;77.58;100130.78;5068261;28;20013;-62
2021/08/28 17:11:34;;;;;;;5.57;4.30;;;;;;;17.70;77.74;100119.09;5061415;28;20323;-62
2021/08/28 17:14:00;;;;;;;4.78;4.05;;;;;;;17.65;78.03;100126.13;5060881;28;20427;-61
2021/08/28 17:16:25;;;;;;;6.50;4.75;;;;;;;17.58;77.77;100126.38;5065204;28;20036;-61
2021/08/28 17:18:50;;;;;;;8.05;5.07;;;;;;;17.54;77.77;100131.38;5072327;28;20103;-61
2021/08/28 17:21:16;;;;;;;6.90;4.40;;;;;;;17.51;77.71;100127.38;5075305;28;20032;-61
2021/08/28 17:23:41;;;;;;;5.80;4.45;;;;;;;17.49;77.88;100129.88;5072877;28;20029;-62
2021/08/28 17:26:07;;;;;;;9.38;5.15;;;;;;;17.49;78.57;100134.75;5075151;28;20396;-62
2021/08/28 17:28:33;;;;;;;11.43;7.65;;;;;;;17.47;78.35;100128.75;5075719;28;20025;-62
2021/08/28 17:30:59;;;;;;;10.25;7.45;;;;;;;17.44;79.18;100133.28;5075381;28;20403;-63
2021/08/28 17:33:25;;;;;;;12.20;7.05;;;;;;;17.43;79.59;100133.75;5075102;28;20048;-63
2021/08/28 17:35:50;;;;;;;7.25;5.13;;;;;;;17.42;80.14;100118.75;5075477;28;20350;-62
2021/08/28 17:38:16;;;;;;;7.07;4.40;;;;;;;17.40;80.57;100115.56;5075245;28;20115;-62
2021/08/28 17:40:42;;;;;;;5.78;4.47;;;;;;;17.38;80.85;100117.28;5074950;28;20095;-63
2021/08/28 17:43:08;;;;;;;9.13;4.80;;;;;;;17.37;81.15;100127.06;5075089;28;20024;-62
2021/08/28 17:45:33;;;;;;;10.50;4.40;;;;;;;17.37;81.29;100127.06;5075314;28;20366;-62
2021/08/28 17:47:58;;;;;;;5.30;4.50;;;;;;;17.39;81.15;100131.03;5075078;28;20024;-62
2021/08/28 17:50:25;;;;;;;5.38;4.07;;;;;;;17.37;81.20;100139.22;5074299;28;20428;-63
2021/08/28 17:52:51;;;;;;;8.20;3.97;;;;;;;17.35;81.18;100136.03;5070439;28;20059;-62
2021/08/28 17:55:17;;;;;;;6.13;3.80;;;;;;;17.32;81.46;100134.13;5074875;28;20028;-65
2021/08/28 17:57:44;;;;;;;5.55;4.47;;;;;;;17.29;81.68;100132.97;5075223;28;20029;-63
2021/08/28 18:00:10;;;;;;;4.53;3.35;;;;;;;17.26;82.06;100127.41;5075521;28;20021;-61
2021/08/28 18:02:35;;;;;;;5.68;4.43;;;;;;;17.21;81.73;100127.97;5067246;28;20096;-62
2021/08/28 18:05:00;;;;;;;5.88;4.20;;;;;;;17.17;81.64;100132.97;5075209;28;20078;-63
2021/08/28 18:07:29;;;;;;;4.45;3.92;;;;;;;17.14;81.82;100136.72;5075275;28;20116;-61
2021/08/28 18:09:54;;;;;;;4.65;4.15;;;;;;;17.10;82.00;100136.03;5075049;28;20028;-62
2021/08/28 18:12:20;;;;;;;4.10;3.67;;;;;;;17.06;82.21;100138.19;5074797;28;20035;-62
2021/08/28 18:14:45;;;;;;;5.88;4.72;;;;;;;17.03;81.96;100136.28;5063714;28;20372;-63
2021/08/28 18:17:11;;;;;;;6.97;4.20;;;;;;;17.01;82.00;100133.88;5075036;28;20427;-62
2021/08/28 18:19:37;;;;;;;5.65;3.75;;;;;;;16.98;82.10;100129.91;5074852;28;20025;-63
2021/08/28 18:22:03;;;;;;;5.93;4.15;;;;;;;16.96;82.55;100123.88;5078549;28;20035;-63
2021/08/28 18:24:29;;;;;;;6.10;4.25;;;;;;;16.93;82.16;100121.94;5077459;28;20020;-63
2021/08/28 18:26:54;;;;;;;6.93;5.30;;;;;;;16.90;82.39;100111.50;5078703;28;20115;-63
2021/08/28 18:29:21;;;;;;;9.02;5.78;;;;;;;16.88;82.21;100114.00;5077439;28;20039;-63
2021/08/28 18:31:46;;;;;;;9.88;5.65;;;;;;;16.88;82.58;100116.03;5078794;28;20028;-61
2021/08/28 18:34:12;;;;;;;10.85;6.63;;;;;;;16.87;82.34;100132.28;5078238;28;20036;-63
2021/08/28 18:36:37;;;;;;;16.63;7.68;;;;;;;16.86;82.33;100138.41;5066506;28;20170;-61
2021/08/28 18:39:03;;;;;;;16.80;9.80;;;;;;;16.86;82.23;100139.19;5078426;28;20027;-63
2021/08/28 18:41:28;;;;;;;10.70;8.68;;;;;;;16.87;82.26;100151.34;5078422;28;20028;-63
2021/08/28 18:43:54;;;;;;;9.20;6.60;;;;;;;16.85;82.61;100140.44;5078250;28;20021;-63
2021/08/28 18:46:19;;;;;;;5.45;4.32;;;;;;;16.82;82.50;100141.34;5078230;28;20097;-62
2021/08/28 18:48:44;;;;;;;6.00;4.05;;;;;;;16.79;82.78;100150.78;5073568;28;20028;-62
2021/08/28 18:51:10;;;;;;;7.65;4.20;;;;;;;16.74;83.27;100148.50;5073831;28;20107;-64
2021/08/28 18:53:35;;;;;;;7.40;3.85;;;;;;;16.72;83.33;100148.16;5077860;28;20213;-63
2021/08/28 18:56:01;;;;;;;8.90;4.28;;;;;;;16.72;83.55;100138.84;5078322;28;20052;-63
2021/08/28 18:58:26;;;;;;;9.32;4.32;;;;;;;16.71;83.53;100138.06;5077687;28;20028;-63
2021/08/28 19:00:52;;;;;;;5.45;3.60;;;;;;;16.70;83.62;100147.78;5078142;28;20111;-63
2021/08/28 19:03:17;;;;;;;3.92;3.55;;;;;;;16.70;83.60;100150.63;5078077;28;20024;-63
2021/08/28 19:05:42;;;;;;;4.28;3.88;;;;;;;16.69;83.41;100151.88;5066403;28;20094;-63
2021/08/28 19:08:08;;;;;;;5.88;3.92;;;;;;;16.68;83.17;100144.59;5077679;28;20035;-63
2021/08/28 19:10:34;;;;;;;4.25;3.55;;;;;;;16.68;83.11;100147.44;5076875;28;20040;-62
2021/08/28 19:12:59;;;;;;;5.50;3.55;;;;;;;16.66;82.98;100135.75;5070039;28;20059;-63
2021/08/28 19:15:24;;;;;;;4.88;3.70;;;;;;;16.62;82.99;100133.00;5070656;28;20022;-63
2021/08/28 19:17:50;;;;;;;4.40;3.40;;;;;;;16.60;82.79;100134.69;5074345;28;20353;-63
2021/08/28 19:20:15;;;;;;;3.88;3.10;;;;;;;16.57;82.93;100144.09;5077699;28;20050;-62
2021/08/28 19:22:40;;;;;;;3.63;3.28;;;;;;;16.54;82.90;100133.66;5077226;28;20107;-63
2021/08/28 19:25:06;;;;;;;3.30;2.63;;;;;;;16.52;83.16;100136.94;5077480;28;20035;-62
2021/08/28 19:27:35;;;;;;;3.42;2.80;;;;;;;16.51;83.13;100132.53;5070820;28;20028;-63
2021/08/28 19:30:00;;;;;;;6.43;2.75;;;;;;;16.48;83.27;100126.94;5068945;28;20416;-63
2021/08/28 19:32:26;;;;;;;4.32;3.22;;;;;;;16.46;83.21;100127.41;5065157;28;20025;-63
2021/08/28 19:34:51;;;;;;;4.45;3.35;;;;;;;16.44;83.10;100134.78;5064678;28;20115;-63
2021/08/28 19:37:16;;;;;;;4.20;3.50;;;;;;;16.43;83.22;100133.94;5071249;28;20040;-62
2021/08/28 19:39:42;;;;;;;3.55;2.75;;;;;;;16.42;82.82;100126.69;5072032;28;20031;-63
2021/08/28 19:42:07;;;;;;;3.13;2.72;;;;;;;16.42;83.33;100121.00;5077048;28;20049;-63
2021/08/28 19:44:32;;;;;;;4.07;3.10;;;;;;;16.41;83.30;100127.13;5077475;28;20358;-63
2021/08/28 19:46:58;;;;;;;3.78;2.90;;;;;;;16.39;83.32;100117.03;5077054;28;20404;-64
2021/08/28 19:49:23;;;;;;;3.92;3.00;;;;;;;16.41;83.10;100119.41;5077187;28;20100;-63
2021/08/28 19:51:50;;;;;;;2.72;2.42;;;;;;;16.40;83.08;100123.50;5077379;28;20025;-63
2021/08/28 19:54:15;;;;;;;4.18;2.90;;;;;;;16.38;83.02;100120.31;5076804;28;20036;-63
2021/08/28 19:56:41;;;;;;;5.30;2.72;;;;;;;16.38;83.07;100112.59;5076972;28;20033;-63
2021/08/28 19:59:06;;;;;;;3.05;2.50;;;;;;;16.35;83.42;100107.84;5076899;28;20016;-63
2021/08/28 20:01:51;;;;;;;2.80;2.50;;;;;;;16.35;83.54;100110.66;5076883;28;20047;-63
2021/08/28 20:04:17;;;;;;;2.83;2.45;;;;;;;16.33;83.54;100110.34;5066201;28;20319;-62
2021/08/28 20:06:42;;;;;;;3.85;3.13;;;;;;;16.31;83.27;100107.16;5076774;28;20024;-62
2021/08/28 20:09:08;;;;;;;3.85;2.67;;;;;;;16.30;83.15;100099.88;5076753;28;20397;-62
2021/08/28 20:11:33;;;;;;;3.20;2.90;;;;;;;16.33;82.93;100092.53;5071661;28;20031;-63
2021/08/28 20:13:59;;;;;;;6.25;3.65;;;;;;;16.34;82.51;100085.59;5065585;28;20017;-63
2021/08/28 20:16:24;;;;;;;12.35;5.50;;;;;;;16.33;82.28;100096.16;5065572;28;20054;-63
2021/08/28 20:18:49;;;;;;;15.73;6.63;;;;;;;16.29;82.38;100103.97;5073412;28;20073;-62
2021/08/28 20:21:15;;;;;;;18.10;8.02;;;;;;;16.27;82.53;100100.78;5073308;28;20099;-62
2021/08/28 20:23:41;;;;;;;11.15;5.38;;;;;;;16.26;82.68;100092.72;5075319;28;20104;-63
2021/08/28 20:26:08;;;;;;;9.45;4.50;;;;;;;16.24;82.83;100092.38;5076226;28;20028;-63
2021/08/28 20:28:33;;;;;;;4.63;3.83;;;;;;;16.21;82.80;100082.75;5075325;28;20025;-63
2021/08/28 20:30:58;;;;;;;5.90;3.35;;;;;;;16.21;82.97;100094.09;5073453;28;20056;-63
2021/08/28 20:33:24;;;;;;;4.03;3.50;;;;;;;16.22;82.97;100092.84;5068444;28;20511;-63
2021/08/28 20:35:50;;;;;;;4.38;3.28;;;;;;;16.21;83.03;100082.75;5072928;28;20017;-62
2021/08/28 20:38:15;;;;;;;5.32;3.88;;;;;;;16.19;83.25;100082.41;5076117;28;20032;-63
2021/08/28 20:40:41;;;;;;;7.57;4.25;;;;;;;16.17;83.34;100078.41;5076063;28;20311;-62
2021/08/28 20:43:06;;;;;;;7.05;4.60;;;;;;;16.17;83.66;100081.25;5075405;28;20433;-63
2021/08/28 20:45:35;;;;;;;7.43;4.57;;;;;;;16.16;83.52;100074.78;5075983;28;20012;-63
2021/08/28 20:48:00;;;;;;;6.82;4.57;;;;;;;16.17;83.49;100078.41;5074475;28;20020;-63
2021/08/28 20:50:25;;;;;;;4.45;4.00;;;;;;;16.18;83.95;100080.81;5076025;28;20107;-62
2021/08/28 20:52:51;;;;;;;6.45;4.20;;;;;;;16.18;83.62;100080.00;5076131;28;20020;-63
2021/08/28 20:55:16;;;;;;;11.75;5.82;;;;;;;16.18;83.66;100082.84;5075579;28;20292;-63
2021/08/28 20:57:42;;;;;;;15.85;6.68;;;;;;;16.17;83.70;100086.94;5072346;28;20354;-63
2021/08/28 21:00:08;;;;;;;15.18;6.70;;;;;;;16.15;83.42;100087.34;5064492;28;20021;-63
2021/08/28 21:02:34;;;;;;;14.63;7.20;;;;;;;16.16;84.02;100090.97;5062752;28;20029;-63
2021/08/28 21:04:59;;;;;;;10.32;7.05;;;;;;;16.15;83.85;100090.19;5060094;28;20089;-63
2021/08/28 21:07:26;;;;;;;13.13;6.53;;;;;;;16.15;83.99;100084.50;5075512;28;20025;-63
2021/08/28 21:09:52;;;;;;;13.77;6.50;;;;;;;16.15;83.77;100090.19;5074307;28;20021;-63
2021/08/28 21:12:17;;;;;;;12.45;6.90;;;;;;;16.15;83.83;100081.69;5073134;28;20028;-63
2021/08/28 21:14:43;;;;;;;8.32;4.90;;;;;;;16.14;83.91;100084.97;5073600;28;20016;-63
2021/08/28 21:17:08;;;;;;;10.60;5.63;;;;;;;16.14;83.98;100076.44;5073815;28;20020;-62
2021/08/28 21:19:33;;;;;;;6.53;4.63;;;;;;;16.13;84.01;100087.00;5073942;28;20041;-63
2021/08/28 21:21:59;;;;;;;5.43;3.97;;;;;;;16.14;84.01;100090.63;5075461;28;20032;-63
2021/08/28 21:24:24;;;;;;;6.70;3.90;;;;;;;16.13;84.58;100092.66;5075145;28;20031;-62
2021/08/28 21:26:50;;;;;;;5.22;4.03;;;;;;;16.12;84.38;100084.63;5075455;28;20028;-63
2021/08/28 21:29:15;;;;;;;4.15;3.70;;;;;;;16.13;84.71;100089.03;5075160;28;20050;-63
2021/08/28 21:31:40;;;;;;;4.78;4.25;;;;;;;16.12;84.94;100091.09;5075373;28;20028;-62
2021/08/28 21:34:09;;;;;;;6.75;4.30;;;;;;;16.10;84.92;100079.41;5075139;28;20101;-62
2021/08/28 21:36:34;;;;;;;6.53;4.90;;;;;;;16.11;84.83;100078.16;5075141;28;20378;-62
2021/08/28 21:39:00;;;;;;;6.90;4.68;;;;;;;16.10;84.87;100082.22;5075374;28;20021;-62
2021/08/28 21:41:25;;;;;;;7.22;4.60;;;;;;;16.10;85.17;100079.41;5066650;28;20033;-62
2021/08/28 21:43:50;;;;;;;9.65;5.28;;;;;;;16.08;85.63;100079.84;5064120;28;20046;-62
2021/08/28 21:46:16;;;;;;;8.00;6.15;;;;;;;16.09;86.33;100080.63;5062725;28;20324;-61
2021/08/28 21:48:41;;;;;;;7.15;4.95;;;;;;;16.08;86.06;100071.34;5062721;28;20293;-62
2021/08/28 21:51:06;;;;;;;6.18;4.75;;;;;;;16.08;86.10;100079.06;5064406;28;20029;-61
2021/08/28 21:53:32;;;;;;;7.25;5.18;;;;;;;16.05;85.95;100077.13;5064095;28;20024;-61
2021/08/28 21:55:57;;;;;;;8.00;5.38;;;;;;;16.06;86.29;100087.22;5066156;28;20021;-61
2021/08/28 21:58:23;;;;;;;6.28;5.55;;;;;;;16.05;86.36;100082.78;5069079;28;20040;-61
2021/08/28 22:00:49;;;;;;;7.30;5.22;;;;;;;16.05;86.51;100079.94;5068731;28;20118;-61
2021/08/28 22:03:15;;;;;;;8.38;5.47;;;;;;;16.05;86.64;100080.75;5069240;28;20148;-61
2021/08/28 22:05:42;;;;;;;7.60;6.80;;;;;;;16.05;86.85;100075.06;5069248;28;20058;-61
2021/08/28 22:08:09;;;;;;;6.80;6.18;;;;;;;16.05;86.71;100079.94;5066592;28;20038;-61
2021/08/28 22:10:35;;;;;;;10.68;6.65;;;;;;;16.04;87.02;100078.34;5066285;28;20735;-57
2021/08/28 22:13:02;;;;;;;6.82;6.13;;;;;;;16.05;86.85;100079.94;5067155;28;20108;-56
2021/08/28 22:15:27;;;;;;;8.40;5.07;;;;;;;16.06;86.85;100087.22;5066219;28;20028;-61
2021/08/28 22:17:53;;;;;;;7.35;6.05;;;;;;;16.06;87.25;100084.38;5069174;28;20032;-62
2021/08/28 22:20:19;;;;;;;6.65;5.45;;;;;;;16.06;87.10;100088.00;5069163;28;20358;-62
2021/08/28 22:22:46;;;;;;;8.55;5.75;;;;;;;16.06;86.99;100092.88;5069195;28;20032;-62
2021/08/28 22:25:11;;;;;;;6.68;5.30;;;;;;;16.06;87.51;100088.00;5066901;28;20324;-62
2021/08/28 22:27:37;;;;;;;8.50;6.03;;;;;;;16.07;87.24;100083.94;5065518;28;20817;-62
2021/08/28 22:30:07;;;;;;;7.85;5.88;;;;;;;16.06;87.17;100078.69;5066559;28;20396;-61
2021/08/28 22:32:33;;;;;;;8.90;5.97;;;;;;;16.06;87.22;100076.66;5067362;28;20029;-61
2021/08/28 22:34:59;;;;;;;7.63;5.68;;;;;;;16.06;87.49;100073.03;5068254;28;20309;-60
2021/08/28 22:37:24;;;;;;;7.57;5.85;;;;;;;16.05;87.38;100074.28;5067310;28;20120;-61
2021/08/28 22:39:50;;;;;;;7.63;6.50;;;;;;;16.05;87.52;100074.28;5072151;28;20032;-61
2021/08/28 22:42:16;;;;;;;7.43;6.20;;;;;;;16.03;87.46;100071.91;5071180;28;20052;-60
2021/08/28 22:44:41;;;;;;;8.38;6.53;;;;;;;16.04;87.68;100079.16;5069128;28;20099;-63
2021/08/28 22:47:07;;;;;;;10.30;6.93;;;;;;;16.03;87.67;100069.06;5078453;28;20419;-63
2021/08/28 22:49:32;;;;;;;10.32;6.05;;;;;;;16.03;87.81;100068.25;5074678;28;20039;-63
2021/08/28 22:51:58;;;;;;;12.40;6.20;;;;;;;16.01;87.53;100067.91;5052799;28;20141;-63
2021/08/28 22:54:23;;;;;;;10.65;7.45;;;;;;;16.02;87.64;100069.50;5064201;28;20064;-63
2021/08/28 22:56:48;;;;;;;7.97;5.57;;;;;;;16.02;87.20;100069.50;5076263;28;20318;-63
2021/08/28 22:59:14;;;;;;;9.02;6.15;;;;;;;16.01;87.42;100068.72;5076629;28;20330;-63
2021/08/28 23:01:39;;;;;;;7.53;5.82;;;;;;;16.00;87.51;100058.63;5077961;28;20028;-63
2021/08/28 23:04:04;;;;;;;8.77;6.38;;;;;;;16.00;87.77;100055.00;5078229;28;20024;-63
2021/08/28 23:06:30;;;;;;;7.63;6.22;;;;;;;16.00;87.14;100052.94;5077636;28;20060;-63
2021/08/28 23:08:56;;;;;;;8.13;5.80;;;;;;;15.99;87.33;100048.53;5078014;28;20078;-63
2021/08/28 23:11:24;;;;;;;7.53;6.20;;;;;;;16.00;87.60;100049.31;5077937;28;20024;-62
2021/08/28 23:13:53;;;;;;;8.00;6.32;;;;;;;15.99;87.23;100042.06;5077695;28;20078;-63
2021/08/28 23:16:19;;;;;;;10.38;6.68;;;;;;;15.98;87.07;100044.09;5068348;28;20316;-63
2021/08/28 23:18:45;;;;;;;7.28;6.20;;;;;;;15.97;86.84;100038.88;5054175;28;20127;-63
2021/08/28 23:21:12;;;;;;;8.10;5.38;;;;;;;15.97;86.87;100042.50;5038353;28;20017;-63
2021/08/28 23:23:38;;;;;;;8.88;5.85;;;;;;;16.01;86.63;100045.25;5043241;28;20071;-63
2021/08/28 23:26:03;;;;;;;7.53;6.13;;;;;;;16.00;86.32;100035.16;5038134;28;20030;-63
2021/08/28 23:28:28;;;;;;;7.95;5.72;;;;;;;15.98;86.49;100041.28;5037848;28;20112;-63
2021/08/28 23:30:54;;;;;;;7.25;5.53;;;;;;;15.96;86.27;100046.59;5035138;28;20435;-61
2021/08/28 23:33:19;;;;;;;7.95;5.78;;;;;;;15.94;86.76;100042.63;5033777;28;20130;-62
2021/08/28 23:35:45;;;;;;;8.52;5.93;;;;;;;15.94;86.71;100042.63;5033183;28;20042;-60
2021/08/28 23:38:10;;;;;;;6.07;5.07;;;;;;;15.92;86.70;100037.41;5032859;28;20333;-61
2021/08/28 23:40:36;;;;;;;7.40;4.85;;;;;;;15.91;86.62;100038.66;5032496;28;20037;-62
2021/08/28 23:43:01;;;;;;;8.13;5.55;;;;;;;15.89;87.05;100037.50;5032116;28;20116;-61
2021/08/28 23:45:26;;;;;;;5.32;4.82;;;;;;;15.89;87.30;100035.47;5032654;28;20030;-63
2021/08/28 23:47:52;;;;;;;7.78;6.18;;;;;;;15.88;87.09;100033.03;5031415;28;20037;-62
2021/08/28 23:50:17;;;;;;;5.38;4.88;;;;;;;15.89;87.13;100031.84;5034806;28;20101;-62
2021/08/28 23:52:43;;;;;;;5.43;4.90;;;;;;;15.87;87.09;100029.41;5033068;28;20040;-62
2021/08/28 23:55:08;;;;;;;7.22;5.35;;;;;;;15.86;87.20;100027.03;5032697;28;20028;-62
2021/08/28 23:57:34;;;;;;;7.72;5.97;;;;;;;15.86;87.31;100025.00;5033450;28;20033;-61
2021/08/28 23:59:59;;;;;;;8.68;5.47;;;;;;;15.85;87.71;100020.56;5031890;28;20108;-62
